MET'MAP v2.0
soon released !

Expected late october,
this new version will be
more efficient, smarter,
and hosted on a brand new
server x3 powerfull...
...and still free !


Not compatible ?
Try the mobile version !

LOG IN : | Subscribe | Disclaimer | Who is Orbifly ? |
ICAO code :

TAF - EBLB Butgenbach Elsenborn - 14 Nov 2019 09:46 UTC
Data Sources :     NOAA   


- Airport Elevation : 1830 ft
- No reported NOTAMs.


EBLB - Butgenbach Elsenborn

Latest METAR recorded : 2015/08/11 08:08 EBLB 110808Z AUTO 06004KT 0650 NCD 19/15 Q1020 RED
Expired Forecast.

Source NOAA


MET'MAP, your aeronautical weather chart ! - Copyright ORBIFLY December 2007

Programming & Development : Alexandra Zaïnal
Co-Developer : Marc-Olivier Méhu
Technical & hardware support : Manuel Goepfert
Concept & Financing : Baudouin d'Aumeries